KFEP/FEP METAR and TAF weather

Enter ICAO airport designator
Station Type Date Time Source
KFEP METAR 2021/03/04 21:35 UTC NOAA

KFEP 042135Z AUTO 03007KT 10SM CLR 01/M05 A3036 RMK AO2 T00051049


Station Type Date Time Source
KFEP Decoded METAR 2021/03/04 21:35 UTC NOAA

Freeport, Albertus Airport, IL, United States (KFEP) 42-14-47N 089-34-56W
Mar 04, 2021 - 04:35 PM EST / 2021.03.04 2135 UTC
Wind: from the NNE (030 degrees) at 8 MPH (7 KT):0
Visibility: 10 mile(s):0
Sky conditions: clear
Temperature: 32.9 F (0.5 C)
Windchill: 26 F (-3 C):1
Dew Point: 23.2 F (-4.9 C)
Relative Humidity: 67%
Pressure (altimeter): 30.36 in. Hg (1028 hPa)
ob: KFEP 042135Z AUTO 03007KT 10SM CLR 01/M05 A3036 RMK AO2 T00051049
cycle: 21

Station Type Date Time Source
KFEP TAF UTC NOAA

Error!

Example: see airport list